KATW/ATW METAR and TAF weather

Enter ICAO airport designator
Station Type Date Time Source
KATW METAR 2021/03/05 12:45 UTC NOAA

KATW 051245Z 30005KT 10SM SCT090 M05/M07 A3035


Station Type Date Time Source
KATW Decoded METAR 2021/03/05 12:45 UTC NOAA

Appleton / Outagamie, WI, United States (KATW) 44-15N 088-31W
Mar 05, 2021 - 07:45 AM EST / 2021.03.05 1245 UTC
Wind: from the WNW (300 degrees) at 6 MPH (5 KT):0
Visibility: 10 mile(s):0
Sky conditions: partly cloudy
Temperature: 23 F (-5 C)
Windchill: 15 F (-9 C):1
Dew Point: 19 F (-7 C)
Relative Humidity: 85%
Pressure (altimeter): 30.35 in. Hg (1027 hPa)
ob: KATW 051245Z 30005KT 10SM SCT090 M05/M07 A3035
cycle: 13

Station Type Date Time Source
KATW TAF 2021/03/05 12:24 UTC NOAA

TAF KATW 051121Z 0512/0612 27008KT P6SM BKN080
FM051400 32008KT P6SM SCT120
FM052300 33004KT P6SM SKC
FM060400 35003KT P6SM SKC

Example: see airport list